Time;durP1;ratioP1;P1;durP2;ratioP2;P2;SDS_P1;SDS_P2;PMS_P1;PMS_P2;Temp;Humidity;BMP_temperature;BMP_pressure;BME280_temperature;BME280_humidity;BME280_pressure;Samples;Min_cycle;Max_cycle;Signal;HPM_P1;HPM_P2
2022/11/10 00:01:30;;;;;;;10.02;1.65;;;;;;;11.94;100.00;99524.34;5086715;28;20031;-89
2022/11/10 00:04:16;;;;;;;12.43;1.90;;;;;;;11.91;100.00;99533.47;5090278;28;20040;-96
2022/11/10 00:07:04;;;;;;;17.80;2.75;;;;;;;11.89;100.00;99525.72;5095352;28;20067;-89
2022/11/10 00:09:54;;;;;;;12.55;1.90;;;;;;;11.86;100.00;99528.72;5095947;27;20047;-89
2022/11/10 00:12:41;;;;;;;6.82;1.50;;;;;;;11.86;100.00;99535.81;5096414;27;20035;-89
2022/11/10 00:18:34;;;;;;;11.95;1.75;;;;;;;11.86;100.00;99534.00;5104190;28;20051;-88
2022/11/10 00:21:21;;;;;;;7.45;1.90;;;;;;;11.85;100.00;99537.63;5096453;28;20030;-88
2022/11/10 00:24:08;;;;;;;16.05;2.65;;;;;;;11.88;100.00;99533.84;5085963;27;20035;-88
2022/11/10 00:26:55;;;;;;;11.13;1.83;;;;;;;11.89;100.00;99535.47;5096881;27;20043;-89
2022/11/10 00:29:43;;;;;;;17.75;2.40;;;;;;;11.90;100.00;99537.09;5115102;27;20058;-88
2022/11/10 00:32:29;;;;;;;17.73;2.30;;;;;;;11.90;100.00;99545.06;5111715;28;20035;-89
2022/11/10 00:35:17;;;;;;;12.10;2.42;;;;;;;11.93;100.00;99547.34;5098899;27;20043;-88
2022/11/10 00:38:03;;;;;;;14.38;2.17;;;;;;;11.93;100.00;99550.00;5105133;27;20468;-89
2022/11/10 00:40:51;;;;;;;16.67;2.67;;;;;;;11.98;100.00;99555.59;5096997;28;20042;-89
2022/11/10 00:43:37;;;;;;;19.65;3.10;;;;;;;11.98;100.00;99558.25;5102037;28;20036;-95
2022/11/10 00:46:25;;;;;;;16.00;2.30;;;;;;;12.04;100.00;99556.72;5099080;28;20165;-95
2022/11/10 00:49:12;;;;;;;11.55;2.08;;;;;;;12.07;100.00;99561.66;5096404;28;20488;-89
2022/11/10 00:51:59;;;;;;;13.18;2.53;;;;;;;12.13;100.00;99561.00;5096085;28;20027;-89
2022/11/10 00:54:45;;;;;;;16.55;2.83;;;;;;;12.16;100.00;99567.75;5088615;28;20024;-88
2022/11/10 00:57:32;;;;;;;13.65;2.55;;;;;;;12.17;100.00;99553.50;5094625;28;20031;-89
2022/11/10 01:00:21;;;;;;;14.48;2.00;;;;;;;12.20;100.00;99547.84;5113892;27;20030;-88
2022/11/10 01:03:16;;;;;;;11.32;2.22;;;;;;;12.22;100.00;99545.88;5095583;28;20088;-89
2022/11/10 01:06:07;;;;;;;13.98;2.55;;;;;;;12.18;100.00;99547.22;5099059;28;20631;-89
2022/11/10 01:08:54;;;;;;;16.00;2.78;;;;;;;12.20;100.00;99544.41;5112538;28;20039;-93
2022/11/10 01:11:41;;;;;;;15.98;2.20;;;;;;;12.18;100.00;99541.94;5113968;28;20034;-94
2022/11/10 01:14:29;;;;;;;14.88;2.05;;;;;;;12.17;100.00;99544.75;5116962;28;20027;-88
2022/11/10 01:17:15;;;;;;;14.75;2.42;;;;;;;12.15;100.00;99553.69;5096406;28;20035;-89
2022/11/10 01:20:02;;;;;;;13.50;2.50;;;;;;;12.17;100.00;99539.47;5108413;28;20446;-88
2022/11/10 01:22:49;;;;;;;15.70;2.20;;;;;;;12.17;100.00;99550.84;5105454;28;20141;-94
2022/11/10 01:25:36;;;;;;;13.52;2.42;;;;;;;12.18;100.00;99536.63;5104475;28;20039;-95
2022/11/10 01:28:23;;;;;;;20.70;2.50;;;;;;;12.13;100.00;99550.41;5094726;28;20039;-89
2022/11/10 01:31:13;;;;;;;11.35;2.05;;;;;;;12.12;100.00;99546.09;5087088;28;20479;-88
2022/11/10 01:33:59;;;;;;;12.93;2.35;;;;;;;12.11;100.00;99551.56;5099380;28;20027;-89
2022/11/10 01:36:46;;;;;;;16.77;2.42;;;;;;;12.11;100.00;99560.34;5114187;28;20424;-95
2022/11/10 01:39:34;;;;;;;11.60;1.83;;;;;;;12.13;100.00;99554.88;5093864;28;20115;-95
2022/11/10 01:42:37;;;;;;;13.40;2.25;;;;;;;12.11;100.00;99560.34;5119731;27;20035;-89
2022/11/10 01:45:25;;;;;;;14.73;2.53;;;;;;;12.11;100.00;99556.88;5107797;27;20035;-88
2022/11/10 01:48:37;;;;;;;15.73;2.33;;;;;;;12.13;100.00;99554.88;5104824;27;20027;-96
2022/11/10 01:51:41;;;;;;;13.55;2.28;;;;;;;12.09;100.00;99553.59;5102388;28;20138;-95
2022/11/10 01:54:30;;;;;;;12.23;2.35;;;;;;;12.12;100.00;99551.38;5102162;28;20062;-95
2022/11/10 01:57:18;;;;;;;17.48;2.55;;;;;;;12.10;100.00;99550.75;5115303;28;20059;-88
2022/11/10 02:00:04;;;;;;;;;;;;;;;12.04;100.00;99538.16;5100386;27;20042;-88
2022/11/10 02:02:59;;;;;;;15.57;2.35;;;;;;;12.11;100.00;99536.50;5122743;27;19919;-88
2022/11/10 02:05:46;;;;;;;16.35;2.55;;;;;;;12.12;100.00;99532.84;5096930;28;20062;-89
2022/11/10 02:08:34;;;;;;;15.63;2.47;;;;;;;12.17;100.00;99528.88;5106814;28;20058;-95
2022/11/10 02:11:21;;;;;;;16.75;2.20;;;;;;;12.15;100.00;99527.19;5095399;28;20036;-96
2022/11/10 02:14:08;;;;;;;15.15;2.78;;;;;;;12.17;100.00;99526.22;5088242;28;20078;-94
2022/11/10 02:16:55;;;;;;;12.02;2.85;;;;;;;12.15;100.00;99518.44;5095808;28;20083;-87
2022/11/10 02:19:42;;;;;;;11.20;2.20;;;;;;;12.18;100.00;99527.84;5105921;28;20464;-88
2022/11/10 02:22:28;;;;;;;14.55;2.67;;;;;;;12.14;100.00;99540.63;5102803;27;20069;-89
2022/11/10 02:25:19;;;;;;;13.75;2.40;;;;;;;12.18;100.00;99536.63;5098058;28;20035;-89
2022/11/10 02:28:06;;;;;;;17.80;2.42;;;;;;;12.14;100.00;99530.84;5114535;28;20045;-96
2022/11/10 02:30:54;;;;;;;17.65;2.40;;;;;;;12.15;100.00;99537.78;5090508;28;20050;-95
2022/11/10 02:33:40;;;;;;;14.50;2.33;;;;;;;12.16;100.00;99538.63;5113158;28;20023;-89
2022/11/10 02:36:27;;;;;;;15.43;2.38;;;;;;;12.20;100.00;99544.41;5108411;28;20028;-88
2022/11/10 02:39:14;;;;;;;15.73;2.17;;;;;;;12.19;100.00;99540.09;5098522;28;20159;-96
2022/11/10 02:42:02;;;;;;;17.83;2.33;;;;;;;12.22;100.00;99548.50;5097275;27;20031;-88
2022/11/10 02:44:48;;;;;;;15.07;2.15;;;;;;;12.21;100.00;99551.34;5097252;28;20038;-88
2022/11/10 02:47:35;;;;;;;12.90;2.58;;;;;;;12.25;100.00;99539.38;5110323;28;20019;-88
2022/11/10 02:50:21;;;;;;;;;;;;;;;12.15;100.00;99531.69;5094257;28;20073;-89
2022/11/10 02:53:09;;;;;;;12.98;1.70;;;;;;;12.21;100.00;99532.78;5095645;28;19962;-89
2022/11/10 02:55:55;;;;;;;14.05;2.15;;;;;;;12.23;100.00;99533.44;5103071;28;20038;-89
2022/11/10 02:58:44;;;;;;;13.55;2.45;;;;;;;12.24;100.00;99541.22;5094212;28;20104;-88
2022/11/10 03:01:31;;;;;;;10.68;2.28;;;;;;;12.25;100.00;99542.03;5106690;28;20399;-89
2022/11/10 03:04:17;;;;;;;11.98;2.05;;;;;;;12.25;100.00;99545.50;5114757;28;20503;-95
2022/11/10 03:07:04;;;;;;;8.95;1.65;;;;;;;12.29;100.00;99543.34;5094763;28;20067;-89
2022/11/10 03:09:51;;;;;;;12.02;2.45;;;;;;;12.31;100.00;99553.75;5094834;28;20476;-89
2022/11/10 03:12:38;;;;;;;11.40;1.70;;;;;;;12.36;100.00;99549.56;5109101;27;20049;-88
2022/11/10 03:15:25;;;;;;;11.20;1.67;;;;;;;12.39;100.00;99548.41;5095101;28;20412;-88
2022/11/10 03:18:12;;;;;;;13.73;1.67;;;;;;;12.39;100.00;99538.59;5110849;28;20038;-88
2022/11/10 03:20:59;;;;;;;9.50;1.27;;;;;;;12.37;100.00;99534.50;5091854;28;20134;-89
2022/11/10 03:23:46;;;;;;;11.15;1.55;;;;;;;12.37;100.00;99532.66;5099215;28;20058;-96
2022/11/10 03:26:32;;;;;;;11.18;1.70;;;;;;;12.35;100.00;99529.38;5087054;28;20490;-95
2022/11/10 03:29:20;;;;;;;10.55;1.63;;;;;;;12.34;100.00;99525.06;5117491;27;20102;-89
2022/11/10 03:32:06;;;;;;;12.48;1.90;;;;;;;12.33;100.00;99511.97;5104903;28;20138;-95
2022/11/10 03:34:53;;;;;;;15.45;2.00;;;;;;;12.31;100.00;99512.16;5096807;28;20036;-95
2022/11/10 03:37:43;;;;;;;12.55;1.67;;;;;;;12.32;100.00;99497.09;5112703;28;20028;-89
2022/11/10 03:40:31;;;;;;;13.05;1.70;;;;;;;12.30;100.00;99496.44;5080757;28;20043;-89
2022/11/10 03:43:17;;;;;;;5.85;1.48;;;;;;;12.24;100.00;99498.81;5109911;28;20035;-89
2022/11/10 03:46:05;;;;;;;6.88;1.15;;;;;;;12.27;100.00;99498.47;5091480;28;20047;-89
2022/11/10 03:48:51;;;;;;;6.38;0.85;;;;;;;12.27;100.00;99489.69;5106431;28;20438;-96
2022/11/10 03:51:38;;;;;;;4.20;0.82;;;;;;;12.30;100.00;99512.34;5108763;28;20047;-96
2022/11/10 03:54:25;;;;;;;6.78;1.00;;;;;;;12.28;100.00;99513.34;5109263;28;20081;-89
2022/11/10 03:57:13;;;;;;;7.55;1.00;;;;;;;12.31;100.00;99501.56;5091847;28;20031;-88
2022/11/10 03:59:59;;;;;;;5.22;0.68;;;;;;;12.28;100.00;99493.97;5097815;27;20046;-88
2022/11/10 04:02:47;;;;;;;4.97;0.80;;;;;;;12.28;100.00;99505.41;5100447;28;20548;-89
2022/11/10 04:08:57;;;;;;;6.45;1.13;;;;;;;12.24;100.00;99490.88;5108471;28;20040;-96
2022/11/10 04:18:19;;;;;;;6.03;0.88;;;;;;;12.27;100.00;99513.53;5112358;27;20623;-90
2022/11/10 04:21:06;;;;;;;8.10;0.82;;;;;;;12.28;100.00;99505.41;5112001;28;20035;-89
2022/11/10 04:23:53;;;;;;;6.07;1.00;;;;;;;12.32;100.00;99516.47;5113322;28;20028;-89
2022/11/10 04:26:41;;;;;;;3.70;0.55;;;;;;;12.38;100.00;99517.56;5092251;28;20024;-90
2022/11/10 04:29:27;;;;;;;3.20;0.55;;;;;;;12.43;100.00;99523.16;5098667;28;20054;-89
2022/11/10 04:32:15;;;;;;;2.03;0.30;;;;;;;12.52;100.00;99532.69;5104684;28;20039;-88
2022/11/10 04:35:01;;;;;;;2.60;0.55;;;;;;;12.55;100.00;99528.84;5111354;28;20475;-88
2022/11/10 04:37:49;;;;;;;1.95;0.38;;;;;;;12.59;100.00;99524.84;5113930;27;20733;-88
2022/11/10 04:40:35;;;;;;;3.50;0.90;;;;;;;12.62;100.00;99524.50;5103091;28;20070;-88
2022/11/10 04:43:23;;;;;;;3.20;0.60;;;;;;;12.67;100.00;99533.72;5099832;28;20041;-89
2022/11/10 04:46:33;;;;;;;1.83;0.50;;;;;;;12.70;100.00;99515.63;5094089;28;20028;-90
2022/11/10 04:49:20;;;;;;;2.25;0.60;;;;;;;12.72;100.00;99518.09;5090336;28;20035;-89
2022/11/10 04:52:06;;;;;;;2.20;0.45;;;;;;;12.72;100.00;99516.28;5097572;28;20063;-89
2022/11/10 04:54:57;;;;;;;1.52;0.45;;;;;;;12.79;100.00;99526.97;5096651;28;20518;-88
2022/11/10 04:57:43;;;;;;;2.75;0.20;;;;;;;12.78;100.00;99527.97;5096088;28;20544;-96
2022/11/10 05:00:32;;;;;;;1.35;0.22;;;;;;;12.84;100.00;99515.81;5099325;28;20042;-94
2022/11/10 05:03:20;;;;;;;0.47;0.20;;;;;;;12.86;100.00;99524.41;5106673;28;20431;-89
2022/11/10 05:06:09;;;;;;;;;;;;;;;12.78;100.00;99520.03;5109674;28;20095;-89
2022/11/10 05:08:56;;;;;;;0.82;0.20;;;;;;;12.87;100.00;99532.19;5109256;28;19926;-95
2022/11/10 05:11:43;;;;;;;1.27;0.20;;;;;;;12.91;100.00;99532.66;5097563;28;20067;-95
2022/11/10 05:14:30;;;;;;;1.33;0.17;;;;;;;12.94;100.00;99523.50;5100504;28;20035;-95
2022/11/10 05:17:17;;;;;;;1.08;0.10;;;;;;;12.90;100.00;99518.56;5097814;28;20027;-88
2022/11/10 05:20:05;;;;;;;0.32;0.10;;;;;;;12.94;100.00;99516.38;5089878;28;20055;-89
2022/11/10 05:25:59;;;;;;;1.33;0.20;;;;;;;12.92;100.00;99525.50;5111754;28;20031;-95
2022/11/10 05:28:46;;;;;;;1.38;0.20;;;;;;;12.89;100.00;99510.78;5097497;28;20038;-94
2022/11/10 05:31:34;;;;;;;0.60;0.10;;;;;;;12.90;100.00;99504.47;5107570;28;20036;-94
2022/11/10 05:34:20;;;;;;;1.33;0.20;;;;;;;12.85;100.00;99501.56;5087644;28;20039;-87
2022/11/10 05:37:07;;;;;;;1.73;0.20;;;;;;;12.87;100.00;99503.00;5108002;28;20024;-87
2022/11/10 05:39:54;;;;;;;0.77;0.20;;;;;;;12.85;100.00;99501.56;5113838;28;20031;-89
2022/11/10 05:42:46;;;;;;;1.83;0.30;;;;;;;12.87;100.00;99510.97;5103874;28;20410;-95
2022/11/10 05:45:32;;;;;;;2.10;0.30;;;;;;;12.83;100.00;99517.66;5097241;28;20042;-95
2022/11/10 05:48:19;;;;;;;3.70;0.50;;;;;;;12.84;100.00;99492.78;5095856;28;20027;-88
2022/11/10 05:51:06;;;;;;;2.70;0.43;;;;;;;12.87;100.00;99494.22;5108408;28;20050;-88
2022/11/10 05:53:52;;;;;;;4.70;0.50;;;;;;;12.84;100.00;99487.47;5096639;28;20043;-94
2022/11/10 05:56:39;;;;;;;4.10;0.68;;;;;;;12.85;100.00;99483.81;5118358;28;20028;-95
2022/11/10 05:59:26;;;;;;;5.65;0.70;;;;;;;12.85;100.00;99477.69;5106796;28;20069;-88
2022/11/10 06:02:14;;;;;;;9.38;1.00;;;;;;;12.84;100.00;99479.50;5106871;28;20501;-89
2022/11/10 06:05:01;;;;;;;3.13;1.15;;;;;;;12.80;100.00;99480.06;5089701;28;20092;-89
2022/11/10 06:07:48;;;;;;;3.88;0.60;;;;;;;12.85;100.00;99490.94;5106759;28;20062;-94
2022/11/10 06:10:35;;;;;;;;;;;;;;;12.76;100.00;99493.69;5084700;28;20442;-95
2022/11/10 06:13:22;;;;;;;4.72;0.80;;;;;;;12.81;100.00;99498.44;5103320;28;19911;-87
2022/11/10 06:16:08;;;;;;;5.90;0.70;;;;;;;12.84;100.00;99486.63;5098037;28;20058;-89
2022/11/10 06:18:56;;;;;;;4.72;0.40;;;;;;;12.81;100.00;99493.13;5097760;28;20027;-96
2022/11/10 06:21:42;;;;;;;6.15;0.98;;;;;;;12.80;100.00;99495.97;5111285;28;20054;-90
2022/11/10 06:24:30;;;;;;;2.75;0.60;;;;;;;12.77;100.00;99511.22;5097069;28;20039;-89
2022/11/10 06:27:16;;;;;;;7.28;0.90;;;;;;;12.76;100.00;99514.91;5088694;28;20042;-96
2022/11/10 06:30:04;;;;;;;5.40;0.82;;;;;;;12.77;100.00;99516.53;5100935;28;20131;-94
2022/11/10 06:32:51;;;;;;;7.63;1.05;;;;;;;12.76;100.00;99512.25;5110498;28;20035;-88
2022/11/10 06:35:39;;;;;;;5.10;0.85;;;;;;;12.76;100.00;99527.31;5111154;28;20487;-90
2022/11/10 06:38:26;;;;;;;8.20;1.10;;;;;;;12.75;100.00;99542.44;5112493;27;20024;-96
2022/11/10 06:41:13;;;;;;;5.68;1.58;;;;;;;12.78;100.00;99543.88;5095016;28;20072;-95
2022/11/10 06:44:00;;;;;;;4.47;0.60;;;;;;;12.76;100.00;99535.28;5114972;27;20077;-89
2022/11/10 06:46:46;;;;;;;;;;;;;;;12.68;100.00;99527.44;5098831;27;20035;-96
2022/11/10 06:49:34;;;;;;;;;;;;;;;12.69;100.00;99511.34;5105359;27;20018;-94
2022/11/10 06:52:20;;;;;;;3.67;0.82;;;;;;;12.75;100.00;99521.22;5089485;28;19912;-88
2022/11/10 06:55:08;;;;;;;7.50;1.15;;;;;;;12.77;100.00;99515.72;5104359;28;20032;-89
2022/11/10 06:57:58;;;;;;;7.28;0.90;;;;;;;12.81;100.00;99522.31;5091446;28;20616;-95
2022/11/10 07:00:46;;;;;;;5.13;0.70;;;;;;;12.86;100.00;99542.97;5059696;28;20044;-95
2022/11/10 07:03:35;;;;;;;8.27;0.77;;;;;;;12.87;100.00;99564.00;5075390;28;20404;-88
2022/11/10 07:06:21;;;;;;;3.60;0.75;;;;;;;12.88;100.00;99564.84;5073283;28;20099;-88
2022/11/10 07:09:09;;;;;;;5.07;0.65;;;;;;;12.92;100.00;99555.50;5074637;28;20063;-94
2022/11/10 07:11:56;;;;;;;3.47;0.68;;;;;;;12.86;100.00;99529.72;5080195;28;20108;-88
2022/11/10 07:14:43;;;;;;;7.88;1.02;;;;;;;12.87;100.00;99513.63;5073443;28;20396;-88
2022/11/10 07:17:30;;;;;;;;;;;;;;;12.77;100.00;99511.22;5067931;28;20489;-89
2022/11/10 07:20:17;;;;;;;3.60;0.60;;;;;;;12.82;100.00;99520.50;5056031;28;19919;-88
2022/11/10 07:23:08;;;;;;;1.65;0.40;;;;;;;12.86;100.00;99513.81;5086817;28;20032;-87
2022/11/10 07:25:55;;;;;;;6.55;1.00;;;;;;;12.87;100.00;99528.69;5072949;28;20374;-89
2022/11/10 07:28:41;;;;;;;4.70;0.73;;;;;;;12.86;100.00;99535.03;5071393;28;20036;-88
2022/11/10 07:31:28;;;;;;;4.85;0.70;;;;;;;12.89;100.00;99542.63;5057070;28;20051;-89
2022/11/10 07:34:15;;;;;;;6.38;0.82;;;;;;;12.86;100.00;99550.94;5074084;28;20043;-87
2022/11/10 07:37:02;;;;;;;6.15;0.50;;;;;;;12.90;100.00;99544.25;5068367;28;20085;-87
2022/11/10 07:39:49;;;;;;;3.78;0.52;;;;;;;12.86;100.00;99532.38;5069642;28;20038;-88
2022/11/10 07:42:40;;;;;;;7.43;0.93;;;;;;;12.94;100.00;99542.06;5057674;28;20118;-88
2022/11/10 07:45:27;;;;;;;5.88;0.55;;;;;;;12.92;100.00;99547.56;5072994;28;20033;-87
2022/11/10 07:48:16;;;;;;;6.53;1.05;;;;;;;12.94;100.00;99537.59;5079850;28;20040;-88
2022/11/10 07:51:03;;;;;;;9.38;1.25;;;;;;;12.96;100.00;99551.50;5066123;28;20548;-88
2022/11/10 07:53:50;;;;;;;7.10;1.00;;;;;;;12.99;100.00;99548.50;5064870;28;20690;-88
2022/11/10 07:56:36;;;;;;;5.18;0.77;;;;;;;13.00;100.00;99546.63;5058285;28;20031;-86
2022/11/10 07:59:25;;;;;;;8.20;1.15;;;;;;;13.06;100.00;99531.84;5083740;28;20052;-96
2022/11/10 08:02:13;;;;;;;4.72;0.70;;;;;;;13.07;100.00;99536.97;5107311;27;20050;-89
2022/11/10 08:05:00;;;;;;;4.43;1.20;;;;;;;13.08;100.00;99537.75;5090620;28;20069;-88
2022/11/10 08:07:47;;;;;;;4.00;0.50;;;;;;;13.09;100.00;99550.84;5098691;28;20031;-89
2022/11/10 08:10:34;;;;;;;5.90;1.35;;;;;;;13.11;100.00;99559.44;5096621;28;20115;-89
2022/11/10 08:13:21;;;;;;;2.88;0.47;;;;;;;13.11;100.00;99556.81;5093512;28;20031;-94
2022/11/10 08:16:08;;;;;;;5.15;1.13;;;;;;;13.08;100.00;99559.81;5104118;28;20648;-96
2022/11/10 08:18:56;;;;;;;4.15;0.60;;;;;;;13.12;100.00;99553.13;5117462;27;20349;-94
2022/11/10 08:21:42;;;;;;;4.68;0.70;;;;;;;13.10;100.00;99552.50;5090832;27;20113;-90
2022/11/10 08:24:29;;;;;;;1.98;0.30;;;;;;;13.11;100.00;99554.16;5089485;28;20123;-94
2022/11/10 08:27:15;;;;;;;4.35;0.40;;;;;;;13.05;100.00;99543.44;5099960;28;20031;-89
2022/11/10 08:30:03;;;;;;;4.97;0.70;;;;;;;13.10;100.00;99552.50;5087911;28;20040;-88
2022/11/10 08:32:49;;;;;;;3.92;0.50;;;;;;;13.12;100.00;99545.16;5092693;28;20069;-89
2022/11/10 08:35:40;;;;;;;3.40;0.50;;;;;;;13.15;100.00;99555.41;5087079;28;20080;-88
2022/11/10 08:38:27;;;;;;;3.78;0.50;;;;;;;13.11;100.00;99570.06;5095098;28;20032;-95
2022/11/10 08:41:15;;;;;;;6.03;0.57;;;;;;;13.17;100.00;99568.50;5094640;28;20535;-95
2022/11/10 08:44:01;;;;;;;1.98;0.40;;;;;;;13.13;100.00;99583.16;5090827;28;20038;-95
2022/11/10 08:46:49;;;;;;;4.45;0.57;;;;;;;13.14;100.00;99584.78;5096358;28;20071;-94
2022/11/10 08:49:36;;;;;;;2.53;0.40;;;;;;;13.10;100.00;99584.34;5092234;28;20035;-95
2022/11/10 08:52:23;;;;;;;2.90;0.50;;;;;;;13.09;100.00;99587.97;5095155;28;20495;-93
2022/11/10 08:55:09;;;;;;;4.28;0.45;;;;;;;13.05;100.00;99593.84;5109775;28;20031;-94
2022/11/10 08:58:02;;;;;;;1.60;0.35;;;;;;;13.05;100.00;99609.75;5096522;28;20100;-85
2022/11/10 09:00:51;;;;;;;6.20;0.70;;;;;;;12.99;100.00;99614.81;5092130;28;20044;-86
2022/11/10 09:03:39;;;;;;;1.90;0.40;;;;;;;12.99;100.00;99582.13;5083457;28;20028;-86
2022/11/10 09:06:25;;;;;;;4.07;0.40;;;;;;;12.94;100.00;99601.25;5096059;28;20024;-87
2022/11/10 09:09:12;;;;;;;2.65;0.40;;;;;;;12.98;100.00;99599.88;5088865;28;20042;-86
2022/11/10 09:11:59;;;;;;;2.42;0.60;;;;;;;12.98;100.00;99605.19;5094909;28;20044;-94
2022/11/10 09:14:46;;;;;;;3.58;0.75;;;;;;;13.07;100.00;99607.75;5097243;28;20035;-94
2022/11/10 09:17:33;;;;;;;3.63;0.55;;;;;;;13.11;100.00;99612.50;5094742;28;20070;-86
2022/11/10 09:20:21;;;;;;;7.45;0.73;;;;;;;13.19;100.00;99629.34;5092612;28;20369;-86
2022/11/10 09:23:17;;;;;;;2.50;0.60;;;;;;;13.24;100.00;99621.66;5103541;28;20031;-93
2022/11/10 09:26:06;;;;;;;5.05;0.30;;;;;;;13.26;100.00;99617.84;5108411;28;20092;-91
2022/11/10 09:28:52;;;;;;;1.08;0.22;;;;;;;13.30;100.00;99631.56;5083643;28;20031;-93
2022/11/10 09:31:42;;;;;;;2.47;0.47;;;;;;;13.30;100.00;99625.44;5087342;28;20480;-92
2022/11/10 09:34:29;;;;;;;2.00;0.30;;;;;;;13.31;100.00;99619.13;5090799;28;20130;-93
2022/11/10 09:37:16;;;;;;;2.78;0.35;;;;;;;13.33;100.00;99622.41;5099686;28;20120;-91
2022/11/10 09:40:03;;;;;;;9.27;0.70;;;;;;;13.31;100.00;99617.28;5096362;28;20375;-92
2022/11/10 09:42:55;;;;;;;3.30;0.57;;;;;;;13.33;100.00;99614.47;5099738;28;20092;-85
2022/11/10 09:45:46;;;;;;;7.18;1.42;;;;;;;13.35;100.00;99613.25;5077483;28;20035;-86
2022/11/10 09:48:42;;;;;;;6.00;1.10;;;;;;;13.41;100.00;99622.31;5096119;28;20051;-92
2022/11/10 09:51:38;;;;;;;13.15;1.55;;;;;;;13.40;100.00;99616.19;5095931;28;20039;-92
2022/11/10 09:54:50;;;;;;;8.43;1.23;;;;;;;13.43;100.00;99625.63;5095807;28;20059;-86
2022/11/10 09:57:44;;;;;;;9.90;1.80;;;;;;;13.47;100.00;99632.19;5095154;27;20031;-85
2022/11/10 10:00:35;;;;;;;7.97;1.70;;;;;;;13.46;100.00;99622.59;5105209;27;20039;-86
2022/11/10 10:03:30;;;;;;;9.50;1.40;;;;;;;13.52;100.00;99629.03;5099413;28;20019;-93
2022/11/10 10:06:18;;;;;;;19.25;2.25;;;;;;;13.54;100.00;99626.22;5104173;28;20083;-93
2022/11/10 10:09:52;;;;;;;10.25;2.13;;;;;;;13.52;100.00;99632.50;5101647;28;20042;-94
2022/11/10 10:13:00;;;;;;;17.45;3.25;;;;;;;13.55;100.00;99636.63;5088900;27;20122;-85
2022/11/10 10:15:53;;;;;;;11.57;2.10;;;;;;;13.60;100.00;99641.41;5103979;27;20035;-86
2022/11/10 10:19:18;;;;;;;13.70;3.13;;;;;;;13.63;100.00;99638.38;5096782;28;20031;-86
2022/11/10 10:22:26;;;;;;;10.60;2.08;;;;;;;13.68;100.00;99646.59;5102722;27;20134;-85
2022/11/10 10:25:26;;;;;;;15.52;2.95;;;;;;;13.70;100.00;99643.75;5113890;27;20395;-85
2022/11/10 10:28:34;;;;;;;13.55;2.83;;;;;;;13.77;100.00;99649.97;5117925;27;20032;-92
2022/11/10 10:31:25;;;;;;;11.95;2.17;;;;;;;13.78;100.00;99656.94;5100869;28;20047;-93
2022/11/10 10:34:16;;;;;;;16.67;2.88;;;;;;;13.81;100.00;99666.38;5093913;28;20462;-92
2022/11/10 10:37:02;;;;;;;15.10;2.75;;;;;;;13.77;100.00;99672.06;5110304;27;20081;-85
2022/11/10 10:39:54;;;;;;;18.00;2.97;;;;;;;13.82;100.00;99678.63;5098308;28;20035;-85
2022/11/10 10:42:40;;;;;;;15.07;2.42;;;;;;;13.77;100.00;99679.19;5122184;27;20043;-93
2022/11/10 10:45:28;;;;;;;14.25;2.80;;;;;;;13.83;100.00;99682.94;5129809;27;20031;-93
2022/11/10 10:48:28;;;;;;;22.63;2.95;;;;;;;13.86;100.00;99690.53;5099519;27;20036;-86
2022/11/10 10:51:29;;;;;;;13.75;2.42;;;;;;;13.90;100.00;99689.19;5112857;27;20031;-86
2022/11/10 10:54:26;;;;;;;18.77;3.00;;;;;;;13.91;100.00;99674.88;5109047;27;20035;-86
2022/11/10 10:57:28;;;;;;;15.65;2.65;;;;;;;13.95;100.00;99683.31;5115149;27;20027;-86
2022/11/10 11:00:22;;;;;;;16.90;3.05;;;;;;;13.97;100.00;99665.31;5093003;28;20177;-85
2022/11/10 11:03:23;;;;;;;19.30;2.85;;;;;;;14.01;100.00;99654.13;5098780;28;20546;-94
2022/11/10 11:06:16;;;;;;;16.67;2.75;;;;;;;14.10;100.00;99651.38;5111766;27;20036;-91
2022/11/10 11:09:08;;;;;;;22.83;3.35;;;;;;;14.12;100.00;99650.19;5098664;27;20040;-86
2022/11/10 11:12:07;;;;;;;17.70;2.60;;;;;;;14.14;100.00;99628.75;5109895;27;20046;-87
2022/11/10 11:15:27;;;;;;;16.65;2.85;;;;;;;14.12;100.00;99642.22;5111895;27;20198;-86
2022/11/10 11:18:16;;;;;;;17.25;2.45;;;;;;;14.14;100.00;99640.19;5106453;27;20035;-87
2022/11/10 11:21:36;;;;;;;19.88;2.90;;;;;;;14.13;100.00;99662.47;5098574;27;20032;-86
2022/11/10 11:24:34;;;;;;;17.45;3.05;;;;;;;14.11;100.00;99661.00;5098193;27;20063;-87
2022/11/10 11:27:53;;;;;;;15.90;2.55;;;;;;;14.08;100.00;99656.06;5119940;27;20105;-86
2022/11/10 11:30:42;;;;;;;17.40;3.80;;;;;;;14.10;100.00;99640.75;5103255;28;20031;-86
2022/11/10 11:33:38;;;;;;;17.80;2.42;;;;;;;14.03;100.00;99659.25;5114871;27;20127;-87
2022/11/10 11:36:34;;;;;;;14.50;2.33;;;;;;;14.02;100.00;99662.94;5093592;28;20039;-85
2022/11/10 11:39:47;;;;;;;8.80;1.80;;;;;;;13.88;100.00;99654.00;5094506;27;20038;-87
2022/11/10 11:42:52;;;;;;;12.63;2.33;;;;;;;13.80;100.00;99654.91;5083405;27;20035;-93
2022/11/10 11:45:52;;;;;;;18.08;3.20;;;;;;;13.77;100.00;99656.13;5091323;28;20414;-91
2022/11/10 11:48:57;;;;;;;12.23;1.92;;;;;;;13.72;100.00;99655.84;5101994;27;20069;-86
2022/11/10 11:52:19;;;;;;;10.20;1.73;;;;;;;13.67;100.00;99652.06;5104938;28;20511;-86
2022/11/10 11:55:06;;;;;;;11.52;1.80;;;;;;;13.61;100.00;99640.38;5104218;28;20118;-85
2022/11/10 11:58:04;;;;;;;11.38;2.13;;;;;;;13.59;100.00;99653.84;5106134;28;20541;-93
2022/11/10 12:01:29;;;;;;;7.32;1.10;;;;;;;13.55;100.00;99652.56;5098152;28;20050;-92
2022/11/10 12:04:16;;;;;;;5.50;1.05;;;;;;;13.57;100.00;99649.72;5093872;28;20043;-95
2022/11/10 12:07:17;;;;;;;7.28;2.58;;;;;;;13.57;100.00;99639.91;5114143;28;20027;-94
2022/11/10 12:10:21;;;;;;;14.30;4.05;;;;;;;13.60;100.00;99630.78;5097989;28;20031;-94
2022/11/10 12:13:25;;;;;;;29.33;20.90;;;;;;;13.66;100.00;99643.31;5113054;28;20027;-93
2022/11/10 12:16:28;;;;;;;17.50;9.23;;;;;;;13.75;100.00;99639.53;5112071;28;20558;-93
2022/11/10 12:19:23;;;;;;;20.40;11.32;;;;;;;13.84;100.00;99629.63;5112853;27;20035;-85
2022/11/10 12:22:36;;;;;;;9.00;1.67;;;;;;;13.86;100.00;99602.88;5097114;28;20035;-94
2022/11/10 12:25:38;;;;;;;5.22;1.23;;;;;;;13.93;100.00;99590.50;5082721;28;20043;-93
2022/11/10 12:28:33;;;;;;;3.50;1.27;;;;;;;13.97;100.00;99586.44;5112919;28;20138;-93
2022/11/10 12:31:25;;;;;;;3.28;1.25;;;;;;;14.01;100.00;99589.56;5094059;28;20040;-94
2022/11/10 12:34:28;;;;;;;8.65;2.00;;;;;;;13.99;100.00;99560.53;5085114;28;20039;-85
2022/11/10 12:37:28;;;;;;;3.92;1.08;;;;;;;14.05;100.00;99550.97;5117540;27;20775;-84
2022/11/10 12:40:18;;;;;;;6.43;1.13;;;;;;;14.05;100.00;99561.59;5114648;27;20058;-84
2022/11/10 12:43:52;;;;;;;10.57;1.42;;;;;;;14.06;100.00;99571.22;5112627;27;20400;-84
2022/11/10 12:46:42;;;;;;;17.02;1.60;;;;;;;14.09;100.00;99541.63;5115524;27;20023;-84
2022/11/10 12:49:35;;;;;;;9.75;1.45;;;;;;;14.14;100.00;99554.34;5099130;28;20089;-92
2022/11/10 12:52:32;;;;;;;15.38;2.38;;;;;;;14.16;100.00;99578.06;5098980;28;20023;-84
2022/11/10 12:55:25;;;;;;;10.82;2.00;;;;;;;14.19;100.00;99573.19;5113316;27;20441;-84
2022/11/10 12:58:13;;;;;;;11.50;1.45;;;;;;;14.19;100.00;99575.84;5107144;27;20056;-84
2022/11/10 13:01:05;;;;;;;13.38;2.75;;;;;;;14.17;100.00;99561.94;5093108;27;20123;-84
2022/11/10 13:03:59;;;;;;;10.02;2.22;;;;;;;14.19;100.00;99565.19;5105730;27;20050;-84
2022/11/10 13:06:48;;;;;;;13.32;2.70;;;;;;;14.23;100.00;99569.16;5092684;28;20032;-84
2022/11/10 13:09:39;;;;;;;9.00;1.80;;;;;;;14.26;100.00;99544.84;5099814;28;20622;-92
2022/11/10 13:12:25;;;;;;;11.18;2.53;;;;;;;14.29;100.00;99564.88;5105788;28;20062;-84
2022/11/10 13:15:46;;;;;;;15.23;2.40;;;;;;;14.31;100.00;99597.44;5107892;27;20024;-84
2022/11/10 13:18:32;;;;;;;13.70;2.95;;;;;;;14.32;100.00;99585.78;5074410;28;20031;-86
2022/11/10 13:21:59;;;;;;;17.83;2.58;;;;;;;14.33;100.00;99544.06;5097465;28;20031;-83
2022/11/10 13:24:46;;;;;;;13.25;2.67;;;;;;;14.34;100.00;99574.94;5085978;28;20071;-83
2022/11/10 13:27:37;;;;;;;11.82;2.10;;;;;;;14.39;100.00;99568.06;5105570;27;20027;-84
2022/11/10 13:30:44;;;;;;;14.10;2.50;;;;;;;14.41;100.00;99583.81;5123608;27;20023;-84